sensor_id;sensor_type;location;lat;lon;timestamp;pressure;altitude;pressure_sealevel;temperature;humidity
34205;BME280;20471;49.680;20.074;2023-03-29T00:00:32;97707.73;;;-2.86;71.39
34205;BME280;20471;49.680;20.074;2023-03-29T00:03:16;97711.66;;;-2.87;71.36
34205;BME280;20471;49.680;20.074;2023-03-29T00:05:44;97710.58;;;-2.96;71.21
34205;BME280;20471;49.680;20.074;2023-03-29T00:08:12;97710.11;;;-3.01;71.09
34205;BME280;20471;49.680;20.074;2023-03-29T00:10:43;97713.46;;;-3.03;71.16
34205;BME280;20471;49.680;20.074;2023-03-29T00:13:15;97712.80;;;-3.03;71.19
34205;BME280;20471;49.680;20.074;2023-03-29T00:15:43;97715.40;;;-3.03;71.05
34205;BME280;20471;49.680;20.074;2023-03-29T00:18:12;97716.92;;;-3.05;70.95
34205;BME280;20471;49.680;20.074;2023-03-29T00:20:40;97715.73;;;-3.10;70.93
34205;BME280;20471;49.680;20.074;2023-03-29T00:23:08;97716.88;;;-3.18;70.75
34205;BME280;20471;49.680;20.074;2023-03-29T00:25:36;97718.17;;;-3.25;70.79
34205;BME280;20471;49.680;20.074;2023-03-29T00:28:05;97719.36;;;-3.32;70.75
34205;BME280;20471;49.680;20.074;2023-03-29T00:30:33;97716.70;;;-3.43;70.80
34205;BME280;20471;49.680;20.074;2023-03-29T00:33:01;97722.84;;;-3.49;70.76
34205;BME280;20471;49.680;20.074;2023-03-29T00:35:29;97724.05;;;-3.53;70.78
34205;BME280;20471;49.680;20.074;2023-03-29T00:37:57;97724.38;;;-3.55;70.64
34205;BME280;20471;49.680;20.074;2023-03-29T00:40:25;97727.19;;;-3.65;70.64
34205;BME280;20471;49.680;20.074;2023-03-29T00:42:53;97730.04;;;-3.72;70.73
34205;BME280;20471;49.680;20.074;2023-03-29T00:45:25;97732.15;;;-3.76;70.80
34205;BME280;20471;49.680;20.074;2023-03-29T00:48:17;97731.33;;;-3.84;70.86
34205;BME280;20471;49.680;20.074;2023-03-29T00:51:02;97734.15;;;-3.91;71.02
34205;BME280;20471;49.680;20.074;2023-03-29T00:53:37;97735.50;;;-3.93;71.05
34205;BME280;20471;49.680;20.074;2023-03-29T00:56:10;97731.13;;;-3.93;71.16
34205;BME280;20471;49.680;20.074;2023-03-29T00:58:52;97733.71;;;-3.95;71.05
34205;BME280;20471;49.680;20.074;2023-03-29T01:04:14;97732.01;;;-4.08;70.91
34205;BME280;20471;49.680;20.074;2023-03-29T01:07:12;97729.70;;;-4.15;70.86
34205;BME280;20471;49.680;20.074;2023-03-29T01:10:04;97727.31;;;-4.21;70.98
34205;BME280;20471;49.680;20.074;2023-03-29T01:12:49;97728.45;;;-4.24;70.92
34205;BME280;20471;49.680;20.074;2023-03-29T01:15:21;97727.30;;;-4.32;70.84
34205;BME280;20471;49.680;20.074;2023-03-29T01:17:51;97726.26;;;-4.37;70.85
34205;BME280;20471;49.680;20.074;2023-03-29T01:20:33;97729.89;;;-4.39;70.75
34205;BME280;20471;49.680;20.074;2023-03-29T01:23:31;97726.66;;;-4.43;70.59
34205;BME280;20471;49.680;20.074;2023-03-29T01:26:49;97728.21;;;-4.49;70.54
34205;BME280;20471;49.680;20.074;2023-03-29T01:29:35;97722.20;;;-4.63;70.37
34205;BME280;20471;49.680;20.074;2023-03-29T01:32:13;97724.31;;;-4.71;70.46
34205;BME280;20471;49.680;20.074;2023-03-29T01:34:57;97720.98;;;-4.76;70.33
34205;BME280;20471;49.680;20.074;2023-03-29T01:37:51;97725.16;;;-4.83;70.38
34205;BME280;20471;49.680;20.074;2023-03-29T01:40:23;97721.58;;;-4.92;70.30
34205;BME280;20471;49.680;20.074;2023-03-29T01:43:03;97724.45;;;-5.00;70.41
34205;BME280;20471;49.680;20.074;2023-03-29T01:45:45;97726.02;;;-5.02;70.52
34205;BME280;20471;49.680;20.074;2023-03-29T01:48:19;97727.96;;;-5.10;70.28
34205;BME280;20471;49.680;20.074;2023-03-29T01:50:57;97727.15;;;-5.21;70.19
34205;BME280;20471;49.680;20.074;2023-03-29T01:53:33;97728.70;;;-5.31;70.18
34205;BME280;20471;49.680;20.074;2023-03-29T01:56:07;97730.86;;;-5.36;70.24
34205;BME280;20471;49.680;20.074;2023-03-29T01:58:44;97728.03;;;-5.44;70.11
34205;BME280;20471;49.680;20.074;2023-03-29T02:01:19;97733.58;;;-5.53;70.16
34205;BME280;20471;49.680;20.074;2023-03-29T02:03:51;97732.98;;;-5.60;70.10
34205;BME280;20471;49.680;20.074;2023-03-29T02:06:21;97733.85;;;-5.67;70.14
34205;BME280;20471;49.680;20.074;2023-03-29T02:08:52;97732.32;;;-5.73;70.33
34205;BME280;20471;49.680;20.074;2023-03-29T02:11:23;97728.84;;;-5.76;70.21
34205;BME280;20471;49.680;20.074;2023-03-29T02:13:52;97726.53;;;-5.79;70.37
34205;BME280;20471;49.680;20.074;2023-03-29T02:16:20;97729.14;;;-5.81;70.44
34205;BME280;20471;49.680;20.074;2023-03-29T02:18:50;97730.33;;;-5.85;70.23
34205;BME280;20471;49.680;20.074;2023-03-29T02:24:05;97727.99;;;-6.05;70.03
34205;BME280;20471;49.680;20.074;2023-03-29T02:26:35;97728.11;;;-6.14;69.99
34205;BME280;20471;49.680;20.074;2023-03-29T02:29:03;97722.02;;;-6.23;70.05
34205;BME280;20471;49.680;20.074;2023-03-29T02:31:46;97726.47;;;-6.27;70.16
34205;BME280;20471;49.680;20.074;2023-03-29T02:34:19;97723.10;;;-6.32;70.15
34205;BME280;20471;49.680;20.074;2023-03-29T02:36:52;97723.14;;;-6.35;70.05
34205;BME280;20471;49.680;20.074;2023-03-29T02:39:23;97727.49;;;-6.40;70.11
34205;BME280;20471;49.680;20.074;2023-03-29T02:41:53;97728.89;;;-6.45;70.03
34205;BME280;20471;49.680;20.074;2023-03-29T02:44:27;97730.44;;;-6.50;69.96
34205;BME280;20471;49.680;20.074;2023-03-29T02:47:09;97732.05;;;-6.56;69.84
34205;BME280;20471;49.680;20.074;2023-03-29T02:49:40;97739.60;;;-6.62;69.82
34205;BME280;20471;49.680;20.074;2023-03-29T02:58:57;97740.05;;;-6.77;69.71
34205;BME280;20471;49.680;20.074;2023-03-29T03:01:25;97742.66;;;-6.88;69.66
34205;BME280;20471;49.680;20.074;2023-03-29T03:03:53;97740.10;;;-6.92;69.74
34205;BME280;20471;49.680;20.074;2023-03-29T03:06:21;97741.61;;;-6.91;69.85
34205;BME280;20471;49.680;20.074;2023-03-29T03:08:49;97740.27;;;-6.92;69.79
34205;BME280;20471;49.680;20.074;2023-03-29T03:11:18;97739.98;;;-6.96;69.91
34205;BME280;20471;49.680;20.074;2023-03-29T03:13:46;97741.44;;;-7.00;69.84
34205;BME280;20471;49.680;20.074;2023-03-29T03:16:15;97744.81;;;-7.03;69.85
34205;BME280;20471;49.680;20.074;2023-03-29T03:18:43;97747.19;;;-7.07;69.78
34205;BME280;20471;49.680;20.074;2023-03-29T03:21:11;97749.52;;;-7.14;69.82
34205;BME280;20471;49.680;20.074;2023-03-29T03:23:39;97752.72;;;-7.18;69.97
34205;BME280;20471;49.680;20.074;2023-03-29T03:26:07;97756.98;;;-7.19;69.90
34205;BME280;20471;49.680;20.074;2023-03-29T03:28:36;97758.08;;;-7.23;69.86
34205;BME280;20471;49.680;20.074;2023-03-29T03:31:06;97756.21;;;-7.29;69.72
34205;BME280;20471;49.680;20.074;2023-03-29T03:33:34;97757.97;;;-7.35;69.77
34205;BME280;20471;49.680;20.074;2023-03-29T03:36:03;97758.36;;;-7.38;69.76
34205;BME280;20471;49.680;20.074;2023-03-29T03:38:33;97757.20;;;-7.42;69.72
34205;BME280;20471;49.680;20.074;2023-03-29T03:41:02;97758.07;;;-7.45;69.82
34205;BME280;20471;49.680;20.074;2023-03-29T03:43:30;97758.23;;;-7.48;69.86
34205;BME280;20471;49.680;20.074;2023-03-29T03:45:58;97758.33;;;-7.49;69.91
34205;BME280;20471;49.680;20.074;2023-03-29T03:48:27;97758.73;;;-7.50;70.02
34205;BME280;20471;49.680;20.074;2023-03-29T03:50:57;97760.87;;;-7.51;70.02
34205;BME280;20471;49.680;20.074;2023-03-29T03:53:25;97759.63;;;-7.53;69.83
34205;BME280;20471;49.680;20.074;2023-03-29T03:55:54;97762.13;;;-7.54;69.94
34205;BME280;20471;49.680;20.074;2023-03-29T03:58:22;97767.73;;;-7.54;69.81
34205;BME280;20471;49.680;20.074;2023-03-29T04:00:51;97767.91;;;-7.61;69.59
34205;BME280;20471;49.680;20.074;2023-03-29T04:03:20;97768.64;;;-7.70;69.49
34205;BME280;20471;49.680;20.074;2023-03-29T04:05:49;97770.95;;;-7.74;69.56
34205;BME280;20471;49.680;20.074;2023-03-29T04:08:18;97771.98;;;-7.76;69.60
34205;BME280;20471;49.680;20.074;2023-03-29T04:10:52;97768.05;;;-7.81;69.52
34205;BME280;20471;49.680;20.074;2023-03-29T04:13:20;97767.93;;;-7.88;69.37
34205;BME280;20471;49.680;20.074;2023-03-29T04:15:49;97770.27;;;-7.92;69.54
34205;BME280;20471;49.680;20.074;2023-03-29T04:18:19;97767.45;;;-7.94;69.66
34205;BME280;20471;49.680;20.074;2023-03-29T04:20:48;97769.54;;;-7.97;69.80
34205;BME280;20471;49.680;20.074;2023-03-29T04:23:16;97765.48;;;-8.00;69.75
34205;BME280;20471;49.680;20.074;2023-03-29T04:25:44;97765.80;;;-8.05;69.56
34205;BME280;20471;49.680;20.074;2023-03-29T04:28:12;97761.95;;;-8.14;69.65
34205;BME280;20471;49.680;20.074;2023-03-29T04:30:41;97764.02;;;-8.16;69.62
34205;BME280;20471;49.680;20.074;2023-03-29T04:33:09;97767.38;;;-8.20;69.68
34205;BME280;20471;49.680;20.074;2023-03-29T04:35:37;97766.31;;;-8.23;69.77
34205;BME280;20471;49.680;20.074;2023-03-29T04:38:05;97767.31;;;-8.22;69.89
34205;BME280;20471;49.680;20.074;2023-03-29T04:40:36;97768.91;;;-8.20;69.89
34205;BME280;20471;49.680;20.074;2023-03-29T04:43:05;97770.48;;;-8.20;69.78
34205;BME280;20471;49.680;20.074;2023-03-29T04:45:33;97772.21;;;-8.20;69.77
34205;BME280;20471;49.680;20.074;2023-03-29T04:48:01;97770.86;;;-8.23;69.74
34205;BME280;20471;49.680;20.074;2023-03-29T04:50:29;97765.89;;;-8.28;69.68
34205;BME280;20471;49.680;20.074;2023-03-29T04:52:57;97772.77;;;-8.32;69.50
34205;BME280;20471;49.680;20.074;2023-03-29T04:55:26;97773.77;;;-8.37;69.51
34205;BME280;20471;49.680;20.074;2023-03-29T04:57:54;97769.91;;;-8.40;69.60
34205;BME280;20471;49.680;20.074;2023-03-29T05:00:23;97772.34;;;-8.40;69.80
34205;BME280;20471;49.680;20.074;2023-03-29T05:02:53;97769.31;;;-8.39;69.76
34205;BME280;20471;49.680;20.074;2023-03-29T05:05:21;97770.20;;;-8.39;69.86
34205;BME280;20471;49.680;20.074;2023-03-29T05:07:49;97767.39;;;-8.38;69.94
34205;BME280;20471;49.680;20.074;2023-03-29T05:10:18;97766.68;;;-8.38;69.97
34205;BME280;20471;49.680;20.074;2023-03-29T05:12:46;97766.40;;;-8.36;70.02
34205;BME280;20471;49.680;20.074;2023-03-29T05:15:19;97766.11;;;-8.34;70.09
34205;BME280;20471;49.680;20.074;2023-03-29T05:17:48;97761.69;;;-8.33;70.21
34205;BME280;20471;49.680;20.074;2023-03-29T05:20:16;97762.11;;;-8.31;70.12
34205;BME280;20471;49.680;20.074;2023-03-29T05:22:44;97761.36;;;-8.31;70.09
34205;BME280;20471;49.680;20.074;2023-03-29T05:25:12;97761.75;;;-8.29;70.21
34205;BME280;20471;49.680;20.074;2023-03-29T05:27:43;97762.38;;;-8.27;70.10
34205;BME280;20471;49.680;20.074;2023-03-29T05:30:12;97760.02;;;-8.26;70.19
34205;BME280;20471;49.680;20.074;2023-03-29T05:32:41;97761.02;;;-8.25;70.19
34205;BME280;20471;49.680;20.074;2023-03-29T05:35:09;97763.04;;;-8.23;70.22
34205;BME280;20471;49.680;20.074;2023-03-29T05:37:38;97762.58;;;-8.25;70.30
34205;BME280;20471;49.680;20.074;2023-03-29T05:40:06;97763.20;;;-8.20;70.45
34205;BME280;20471;49.680;20.074;2023-03-29T05:42:35;97768.63;;;-8.14;70.41
34205;BME280;20471;49.680;20.074;2023-03-29T05:45:05;97770.02;;;-8.11;70.36
34205;BME280;20471;49.680;20.074;2023-03-29T05:47:33;97770.98;;;-8.07;70.47
34205;BME280;20471;49.680;20.074;2023-03-29T05:50:02;97770.17;;;-8.02;70.43
34205;BME280;20471;49.680;20.074;2023-03-29T05:52:30;97766.36;;;-7.97;70.46
34205;BME280;20471;49.680;20.074;2023-03-29T05:54:59;97766.95;;;-7.92;70.53
34205;BME280;20471;49.680;20.074;2023-03-29T05:57:27;97768.59;;;-7.87;70.57
34205;BME280;20471;49.680;20.074;2023-03-29T05:59:55;97764.58;;;-7.81;70.74
34205;BME280;20471;49.680;20.074;2023-03-29T06:02:23;97764.60;;;-7.73;70.79
34205;BME280;20471;49.680;20.074;2023-03-29T06:04:54;97763.45;;;-7.65;70.85
34205;BME280;20471;49.680;20.074;2023-03-29T06:07:22;97761.98;;;-7.58;70.94
34205;BME280;20471;49.680;20.074;2023-03-29T06:09:51;97762.70;;;-7.52;70.99
34205;BME280;20471;49.680;20.074;2023-03-29T06:12:19;97761.66;;;-7.44;70.92
34205;BME280;20471;49.680;20.074;2023-03-29T06:14:47;97764.13;;;-7.36;71.14
34205;BME280;20471;49.680;20.074;2023-03-29T06:17:16;97762.52;;;-7.29;71.19
34205;BME280;20471;49.680;20.074;2023-03-29T06:19:44;97761.55;;;-7.19;71.21
34205;BME280;20471;49.680;20.074;2023-03-29T06:22:12;97761.31;;;-7.10;71.27
34205;BME280;20471;49.680;20.074;2023-03-29T06:24:40;97763.88;;;-7.00;71.33
34205;BME280;20471;49.680;20.074;2023-03-29T06:27:08;97764.33;;;-6.91;71.37
34205;BME280;20471;49.680;20.074;2023-03-29T06:29:36;97763.48;;;-6.79;71.52
34205;BME280;20471;49.680;20.074;2023-03-29T06:32:05;97763.61;;;-6.68;71.53
34205;BME280;20471;49.680;20.074;2023-03-29T06:34:33;97763.88;;;-6.58;71.67
34205;BME280;20471;49.680;20.074;2023-03-29T06:37:03;97766.58;;;-6.49;71.71
34205;BME280;20471;49.680;20.074;2023-03-29T06:39:31;97766.55;;;-6.38;71.76
34205;BME280;20471;49.680;20.074;2023-03-29T06:41:59;97762.58;;;-6.25;71.75
34205;BME280;20471;49.680;20.074;2023-03-29T06:44:27;97761.72;;;-6.11;71.91
34205;BME280;20471;49.680;20.074;2023-03-29T06:46:55;97759.66;;;-5.99;71.96
34205;BME280;20471;49.680;20.074;2023-03-29T06:49:24;97763.50;;;-5.86;72.00
34205;BME280;20471;49.680;20.074;2023-03-29T06:51:52;97764.59;;;-5.73;72.04
34205;BME280;20471;49.680;20.074;2023-03-29T06:54:22;97765.52;;;-5.61;71.77
34205;BME280;20471;49.680;20.074;2023-03-29T06:56:51;97770.29;;;-5.49;71.69
34205;BME280;20471;49.680;20.074;2023-03-29T06:59:20;97770.12;;;-5.36;71.52
34205;BME280;20471;49.680;20.074;2023-03-29T07:01:48;97765.10;;;-5.22;71.53
34205;BME280;20471;49.680;20.074;2023-03-29T07:04:19;97766.07;;;-5.08;71.57
34205;BME280;20471;49.680;20.074;2023-03-29T07:06:49;97764.56;;;-4.94;71.41
34205;BME280;20471;49.680;20.074;2023-03-29T07:09:27;97761.12;;;-4.80;71.37
34205;BME280;20471;49.680;20.074;2023-03-29T07:11:57;97761.29;;;-4.65;71.38
34205;BME280;20471;49.680;20.074;2023-03-29T07:14:26;97763.77;;;-4.48;71.19
34205;BME280;20471;49.680;20.074;2023-03-29T07:16:56;97766.38;;;-4.33;71.16
34205;BME280;20471;49.680;20.074;2023-03-29T07:19:25;97766.14;;;-4.18;70.82
34205;BME280;20471;49.680;20.074;2023-03-29T07:21:55;97769.55;;;-4.02;70.53
34205;BME280;20471;49.680;20.074;2023-03-29T07:24:24;97772.72;;;-3.85;70.32
34205;BME280;20471;49.680;20.074;2023-03-29T07:26:52;97773.16;;;-3.70;70.27
34205;BME280;20471;49.680;20.074;2023-03-29T07:29:20;97774.48;;;-3.55;70.04
34205;BME280;20471;49.680;20.074;2023-03-29T07:31:48;97774.23;;;-3.38;69.94
34205;BME280;20471;49.680;20.074;2023-03-29T07:34:17;97770.44;;;-3.20;69.52
34205;BME280;20471;49.680;20.074;2023-03-29T07:36:45;97768.98;;;-3.04;69.07
34205;BME280;20471;49.680;20.074;2023-03-29T07:39:13;97766.24;;;-2.89;68.76
34205;BME280;20471;49.680;20.074;2023-03-29T07:41:42;97765.73;;;-2.72;68.62
34205;BME280;20471;49.680;20.074;2023-03-29T07:44:10;97762.75;;;-2.50;68.68
34205;BME280;20471;49.680;20.074;2023-03-29T07:46:38;97751.98;;;-2.27;68.65
34205;BME280;20471;49.680;20.074;2023-03-29T07:49:08;97752.92;;;-2.04;68.35
34205;BME280;20471;49.680;20.074;2023-03-29T07:51:36;97749.70;;;-1.80;68.01
34205;BME280;20471;49.680;20.074;2023-03-29T07:54:04;97748.30;;;-1.57;67.60
34205;BME280;20471;49.680;20.074;2023-03-29T07:56:33;97748.52;;;-1.32;67.24
34205;BME280;20471;49.680;20.074;2023-03-29T07:59:01;97743.86;;;-1.05;67.19
34205;BME280;20471;49.680;20.074;2023-03-29T08:01:30;97746.17;;;-0.78;66.59
34205;BME280;20471;49.680;20.074;2023-03-29T08:04:18;97743.73;;;-0.59;65.68
34205;BME280;20471;49.680;20.074;2023-03-29T08:06:46;97742.33;;;-0.35;65.03
34205;BME280;20471;49.680;20.074;2023-03-29T08:09:15;97742.35;;;-0.01;64.67
34205;BME280;20471;49.680;20.074;2023-03-29T08:11:43;97738.04;;;0.32;64.19
34205;BME280;20471;49.680;20.074;2023-03-29T08:14:12;97733.97;;;0.65;63.79
34205;BME280;20471;49.680;20.074;2023-03-29T08:16:40;97731.59;;;0.98;63.40
34205;BME280;20471;49.680;20.074;2023-03-29T08:19:08;97729.26;;;1.30;62.63
34205;BME280;20471;49.680;20.074;2023-03-29T08:21:36;97720.09;;;1.62;62.43
34205;BME280;20471;49.680;20.074;2023-03-29T08:24:05;97716.08;;;1.89;61.69
34205;BME280;20471;49.680;20.074;2023-03-29T08:26:33;97711.17;;;2.17;60.98
34205;BME280;20471;49.680;20.074;2023-03-29T08:29:02;97709.20;;;2.53;59.80
34205;BME280;20471;49.680;20.074;2023-03-29T08:31:30;97710.86;;;2.90;59.90
34205;BME280;20471;49.680;20.074;2023-03-29T08:33:59;97705.55;;;3.32;59.32
34205;BME280;20471;49.680;20.074;2023-03-29T08:36:27;97709.61;;;3.69;58.96
34205;BME280;20471;49.680;20.074;2023-03-29T08:38:55;97708.50;;;4.08;58.43
34205;BME280;20471;49.680;20.074;2023-03-29T08:44:58;97707.21;;;4.79;56.94
34205;BME280;20471;49.680;20.074;2023-03-29T08:47:55;97709.20;;;5.14;56.70
34205;BME280;20471;49.680;20.074;2023-03-29T08:50:33;97707.86;;;5.43;55.91
34205;BME280;20471;49.680;20.074;2023-03-29T08:53:18;97709.09;;;5.69;55.36
34205;BME280;20471;49.680;20.074;2023-03-29T08:55:48;97709.73;;;5.83;54.51
34205;BME280;20471;49.680;20.074;2023-03-29T08:58:25;97707.39;;;5.98;53.88
34205;BME280;20471;49.680;20.074;2023-03-29T09:00:59;97704.17;;;6.12;53.72
34205;BME280;20471;49.680;20.074;2023-03-29T09:03:35;97696.91;;;6.25;53.55
34205;BME280;20471;49.680;20.074;2023-03-29T09:06:08;97695.69;;;6.43;52.98
34205;BME280;20471;49.680;20.074;2023-03-29T09:08:42;97696.13;;;6.60;52.27
34205;BME280;20471;49.680;20.074;2023-03-29T09:16:41;97685.98;;;6.88;50.74
34205;BME280;20471;49.680;20.074;2023-03-29T09:19:22;97682.64;;;6.95;49.11
34205;BME280;20471;49.680;20.074;2023-03-29T09:21:58;97681.05;;;6.96;49.40
34205;BME280;20471;49.680;20.074;2023-03-29T09:24:51;97681.20;;;7.14;49.04
34205;BME280;20471;49.680;20.074;2023-03-29T09:32:51;97679.05;;;7.75;48.32
34205;BME280;20471;49.680;20.074;2023-03-29T09:35:23;97675.78;;;7.97;47.87
34205;BME280;20471;49.680;20.074;2023-03-29T09:37:53;97673.33;;;8.16;47.47
34205;BME280;20471;49.680;20.074;2023-03-29T09:40:38;97674.75;;;8.36;47.01
34205;BME280;20471;49.680;20.074;2023-03-29T09:43:14;97676.48;;;8.67;46.54
34205;BME280;20471;49.680;20.074;2023-03-29T09:45:50;97675.55;;;8.82;46.08
34205;BME280;20471;49.680;20.074;2023-03-29T09:48:20;97674.98;;;9.02;46.50
34205;BME280;20471;49.680;20.074;2023-03-29T09:50:50;97672.76;;;9.33;46.24
34205;BME280;20471;49.680;20.074;2023-03-29T09:53:19;97663.70;;;9.57;45.39
34205;BME280;20471;49.680;20.074;2023-03-29T09:55:49;97658.21;;;9.67;44.96
34205;BME280;20471;49.680;20.074;2023-03-29T09:58:23;97654.90;;;9.86;45.88
34205;BME280;20471;49.680;20.074;2023-03-29T10:00:56;97653.60;;;10.12;45.25
34205;BME280;20471;49.680;20.074;2023-03-29T10:03:28;97652.48;;;10.34;44.36
34205;BME280;20471;49.680;20.074;2023-03-29T10:06:00;97652.06;;;10.45;43.61
34205;BME280;20471;49.680;20.074;2023-03-29T10:11:16;97646.75;;;10.31;42.98
34205;BME280;20471;49.680;20.074;2023-03-29T10:13:50;97646.84;;;10.37;43.14
34205;BME280;20471;49.680;20.074;2023-03-29T10:16:28;97641.64;;;10.53;43.43
34205;BME280;20471;49.680;20.074;2023-03-29T10:18:56;97642.05;;;10.74;43.44
34205;BME280;20471;49.680;20.074;2023-03-29T10:21:28;97646.78;;;10.79;42.92
34205;BME280;20471;49.680;20.074;2023-03-29T10:23:57;97644.29;;;10.79;42.63
34205;BME280;20471;49.680;20.074;2023-03-29T10:26:29;97639.93;;;10.87;42.60
34205;BME280;20471;49.680;20.074;2023-03-29T10:28:58;97639.89;;;11.00;42.52
34205;BME280;20471;49.680;20.074;2023-03-29T10:31:29;97636.73;;;10.97;41.97
34205;BME280;20471;49.680;20.074;2023-03-29T10:34:03;97635.75;;;10.85;41.48
34205;BME280;20471;49.680;20.074;2023-03-29T10:36:33;97638.42;;;10.77;41.98
34205;BME280;20471;49.680;20.074;2023-03-29T10:39:03;97639.85;;;10.70;41.72
34205;BME280;20471;49.680;20.074;2023-03-29T10:41:32;97637.59;;;10.66;41.48
34205;BME280;20471;49.680;20.074;2023-03-29T10:44:02;97636.12;;;10.53;41.10
34205;BME280;20471;49.680;20.074;2023-03-29T10:46:39;97638.80;;;10.40;41.10
34205;BME280;20471;49.680;20.074;2023-03-29T10:49:18;97634.98;;;10.37;40.69
34205;BME280;20471;49.680;20.074;2023-03-29T10:51:48;97631.14;;;10.46;41.04
34205;BME280;20471;49.680;20.074;2023-03-29T10:54:20;97623.16;;;10.55;40.73
34205;BME280;20471;49.680;20.074;2023-03-29T11:26:29;97599.74;;;12.49;37.85
34205;BME280;20471;49.680;20.074;2023-03-29T11:37:44;97588.16;;;12.50;37.23
34205;BME280;20471;49.680;20.074;2023-03-29T11:43:11;97582.35;;;12.47;37.14
34205;BME280;20471;49.680;20.074;2023-03-29T11:45:47;97579.23;;;12.46;36.97
34205;BME280;20471;49.680;20.074;2023-03-29T11:48:28;97571.14;;;12.48;36.80
34205;BME280;20471;49.680;20.074;2023-03-29T11:51:09;97572.02;;;12.65;36.65
34205;BME280;20471;49.680;20.074;2023-03-29T11:53:59;97571.23;;;12.79;36.92
34205;BME280;20471;49.680;20.074;2023-03-29T11:56:43;97570.20;;;12.71;36.24
34205;BME280;20471;49.680;20.074;2023-03-29T11:59:36;97570.64;;;12.66;35.91
34205;BME280;20471;49.680;20.074;2023-03-29T12:02:21;97570.20;;;12.83;36.03
34205;BME280;20471;49.680;20.074;2023-03-29T12:04:54;97573.30;;;12.87;35.88
34205;BME280;20471;49.680;20.074;2023-03-29T12:07:31;97567.45;;;12.91;35.94
34205;BME280;20471;49.680;20.074;2023-03-29T12:10:23;97565.15;;;13.01;35.94
34205;BME280;20471;49.680;20.074;2023-03-29T12:13:04;97556.74;;;13.20;35.72
34205;BME280;20471;49.680;20.074;2023-03-29T12:15:49;97557.08;;;13.37;35.82
34205;BME280;20471;49.680;20.074;2023-03-29T12:18:30;97555.55;;;13.40;35.55
34205;BME280;20471;49.680;20.074;2023-03-29T12:21:09;97551.21;;;13.23;35.28
34205;BME280;20471;49.680;20.074;2023-03-29T12:23:40;97545.02;;;13.25;35.15
34205;BME280;20471;49.680;20.074;2023-03-29T12:39:38;97525.16;;;13.88;34.49
34205;BME280;20471;49.680;20.074;2023-03-29T12:42:19;97520.79;;;14.05;34.70
34205;BME280;20471;49.680;20.074;2023-03-29T12:44:50;97516.08;;;14.26;34.50
34205;BME280;20471;49.680;20.074;2023-03-29T12:47:26;97515.67;;;14.54;34.22
34205;BME280;20471;49.680;20.074;2023-03-29T12:49:59;97511.61;;;14.87;33.98
34205;BME280;20471;49.680;20.074;2023-03-29T12:52:32;97514.77;;;15.02;33.95
34205;BME280;20471;49.680;20.074;2023-03-29T12:55:15;97512.16;;;15.05;33.84
34205;BME280;20471;49.680;20.074;2023-03-29T12:57:59;97509.37;;;15.18;33.50
34205;BME280;20471;49.680;20.074;2023-03-29T13:00:42;97505.95;;;15.19;33.97
34205;BME280;20471;49.680;20.074;2023-03-29T13:03:27;97505.73;;;15.20;33.77
34205;BME280;20471;49.680;20.074;2023-03-29T13:06:03;97505.16;;;15.19;33.57
34205;BME280;20471;49.680;20.074;2023-03-29T13:11:03;97503.09;;;15.21;33.57
34205;BME280;20471;49.680;20.074;2023-03-29T13:13:37;97499.56;;;15.19;33.08
34205;BME280;20471;49.680;20.074;2023-03-29T13:16:30;97500.77;;;15.10;33.60
34205;BME280;20471;49.680;20.074;2023-03-29T13:22:03;97491.61;;;14.76;32.86
34205;BME280;20471;49.680;20.074;2023-03-29T13:27:49;97488.84;;;15.04;32.88
34205;BME280;20471;49.680;20.074;2023-03-29T13:33:04;97479.64;;;15.21;31.75
34205;BME280;20471;49.680;20.074;2023-03-29T13:35:47;97473.05;;;15.21;32.68
34205;BME280;20471;49.680;20.074;2023-03-29T13:38:23;97468.77;;;15.36;32.45
34205;BME280;20471;49.680;20.074;2023-03-29T13:40:58;97466.91;;;15.52;31.82
34205;BME280;20471;49.680;20.074;2023-03-29T13:43:34;97468.80;;;15.44;31.61
34205;BME280;20471;49.680;20.074;2023-03-29T13:46:14;97466.94;;;15.25;31.58
34205;BME280;20471;49.680;20.074;2023-03-29T13:48:53;97471.96;;;15.08;31.65
34205;BME280;20471;49.680;20.074;2023-03-29T13:51:32;97471.58;;;14.94;31.96
34205;BME280;20471;49.680;20.074;2023-03-29T14:00:21;97465.73;;;14.17;31.51
34205;BME280;20471;49.680;20.074;2023-03-29T14:03:00;97460.57;;;14.15;31.96
34205;BME280;20471;49.680;20.074;2023-03-29T14:05:36;97458.86;;;14.21;32.05
34205;BME280;20471;49.680;20.074;2023-03-29T14:08:28;97458.67;;;14.30;32.04
34205;BME280;20471;49.680;20.074;2023-03-29T14:10:55;97459.70;;;14.15;31.28
34205;BME280;20471;49.680;20.074;2023-03-29T14:13:24;97454.78;;;13.98;31.67
34205;BME280;20471;49.680;20.074;2023-03-29T14:16:01;97451.11;;;14.03;31.93
34205;BME280;20471;49.680;20.074;2023-03-29T14:18:39;97453.85;;;13.91;31.22
34205;BME280;20471;49.680;20.074;2023-03-29T14:21:10;97447.98;;;13.66;31.33
34205;BME280;20471;49.680;20.074;2023-03-29T14:23:45;97447.40;;;13.72;31.60
34205;BME280;20471;49.680;20.074;2023-03-29T14:26:16;97446.13;;;13.87;31.93
34205;BME280;20471;49.680;20.074;2023-03-29T14:28:54;97441.15;;;13.88;31.81
34205;BME280;20471;49.680;20.074;2023-03-29T14:31:25;97441.04;;;13.74;31.58
34205;BME280;20471;49.680;20.074;2023-03-29T14:33:58;97437.46;;;13.60;31.41
34205;BME280;20471;49.680;20.074;2023-03-29T14:36:29;97431.32;;;13.54;31.56
34205;BME280;20471;49.680;20.074;2023-03-29T14:39:04;97430.44;;;13.55;31.87
34205;BME280;20471;49.680;20.074;2023-03-29T14:41:36;97431.56;;;13.43;31.77
34205;BME280;20471;49.680;20.074;2023-03-29T14:44:06;97435.53;;;13.26;31.95
34205;BME280;20471;49.680;20.074;2023-03-29T14:46:35;97438.05;;;12.98;31.83
34205;BME280;20471;49.680;20.074;2023-03-29T14:49:03;97436.04;;;12.76;32.12
34205;BME280;20471;49.680;20.074;2023-03-29T14:51:32;97435.40;;;12.51;32.29
34205;BME280;20471;49.680;20.074;2023-03-29T14:54:02;97436.52;;;12.35;32.39
34205;BME280;20471;49.680;20.074;2023-03-29T14:56:31;97438.80;;;12.16;32.57
34205;BME280;20471;49.680;20.074;2023-03-29T14:59:02;97437.70;;;12.02;32.81